Terminal Aerodrome Forecast
Issued by NWS

Home | Current Version | Previous Version | Graphics & Text | Print | Product List | Glossary On
Versions: 1 2 3 4 5 6 7 8 9 10 11 12 13 14 15 16 17 18 19 20 21 22 23 24 25 26
000
FTUS43 KTOP 250500
TAFMHK
TAF
KMHK 250520Z 2506/2606 21009KT P6SM -RA VCTS BKN060CB
      TEMPO 2506/2507 5SM -RA BKN007 OVC015
     FM251000 28013G19KT 5SM -RA BR OVC020
     FM251400 33011KT P6SM BKN025
     FM260000 03009KT P6SM OVC020=

USA.gov is the U.S. government's official web portal to all federal, state and local government web resources and services.